createdAt,value
2022-12-15T00:00:23.368Z,18.95
2022-12-15T00:03:44.295Z,19.20
2022-12-15T00:07:05.406Z,20.60
2022-12-15T00:10:26.470Z,19.42
2022-12-15T00:13:47.317Z,18.77
2022-12-15T00:17:08.378Z,19.33
2022-12-15T00:20:29.583Z,20.50
2022-12-15T00:23:50.634Z,22.45
2022-12-15T00:27:11.926Z,24.10
2022-12-15T00:30:33.011Z,22.13
2022-12-15T00:33:54.096Z,22.52
2022-12-15T00:37:15.715Z,20.77
2022-12-15T00:40:18.125Z,22.17
2022-12-15T00:43:20.514Z,21.45
2022-12-15T00:46:41.482Z,21.42
2022-12-15T00:50:02.450Z,20.00
2022-12-15T00:53:23.531Z,20.63
2022-12-15T00:56:44.492Z,22.02
2022-12-15T01:00:05.477Z,21.08
2022-12-15T01:03:31.216Z,20.57
2022-12-15T01:06:52.562Z,20.67
2022-12-15T01:10:13.586Z,21.38
2022-12-15T01:13:34.744Z,21.70
2022-12-15T01:16:55.877Z,22.40
2022-12-15T01:20:14.534Z,22.83
2022-12-15T01:23:16.886Z,21.20
2022-12-15T01:26:19.679Z,21.88
2022-12-15T01:29:22.221Z,21.33
2022-12-15T01:32:24.990Z,21.80
2022-12-15T01:35:27.808Z,21.93
2022-12-15T01:38:30.442Z,21.73
2022-12-15T01:41:32.958Z,20.77
2022-12-15T01:44:36.894Z,22.57
2022-12-15T01:47:39.534Z,22.48
2022-12-15T01:51:00.077Z,21.35
2022-12-15T01:54:11.324Z,22.50
2022-12-15T01:57:18.955Z,20.73
2022-12-15T02:00:21.353Z,23.10
2022-12-15T02:03:24.620Z,21.60
2022-12-15T02:06:29.075Z,22.53
2022-12-15T02:09:31.814Z,21.80
2022-12-15T02:13:02.799Z,23.52
2022-12-15T02:16:23.497Z,23.52
2022-12-15T02:19:36.414Z,22.38
2022-12-15T02:23:11.154Z,21.95
2022-12-15T02:26:30.105Z,22.90
2022-12-15T02:29:50.738Z,22.50
2022-12-15T02:33:21.369Z,24.42
2022-12-15T02:36:37.274Z,23.13
2022-12-15T02:39:39.833Z,22.15
2022-12-15T02:42:49.321Z,24.77
2022-12-15T02:46:01.515Z,25.10
2022-12-15T02:49:26.232Z,23.98
2022-12-15T02:52:54.046Z,26.23
2022-12-15T02:56:05.925Z,24.60
2022-12-15T02:59:19.501Z,23.92
2022-12-15T03:02:26.661Z,24.17
2022-12-15T03:05:31.822Z,28.35
2022-12-15T03:08:34.252Z,29.30
2022-12-15T03:11:37.302Z,26.30
2022-12-15T03:14:39.812Z,25.38
2022-12-15T03:17:42.353Z,28.08
2022-12-15T03:20:46.792Z,26.70
2022-12-15T03:23:49.253Z,29.00
2022-12-15T03:26:51.912Z,29.27
2022-12-15T03:29:54.444Z,27.50
2022-12-15T03:32:56.854Z,27.63
2022-12-15T03:36:00.108Z,27.48
2022-12-15T03:39:03.568Z,26.67
2022-12-15T03:42:06.128Z,25.15
2022-12-15T03:45:09.028Z,26.25
2022-12-15T03:48:11.377Z,30.27
2022-12-15T03:51:13.739Z,28.15
2022-12-15T03:54:16.194Z,27.87
2022-12-15T03:57:18.649Z,28.75
2022-12-15T04:00:22.872Z,27.77
2022-12-15T04:03:25.854Z,33.40
2022-12-15T04:06:30.032Z,40.80
2022-12-15T04:09:32.612Z,35.72
2022-12-15T04:12:35.052Z,27.60
2022-12-15T04:15:39.073Z,27.30
2022-12-15T04:18:41.926Z,29.55
2022-12-15T04:21:44.324Z,29.15
2022-12-15T04:25:05.344Z,28.37
2022-12-15T04:28:27.369Z,25.58
2022-12-15T04:31:52.039Z,26.85
2022-12-15T04:35:13.598Z,25.43
2022-12-15T04:38:34.916Z,25.33
2022-12-15T04:41:56.152Z,27.52
2022-12-15T04:45:21.325Z,28.27
2022-12-15T04:48:42.397Z,29.52
2022-12-15T04:52:03.441Z,27.88
2022-12-15T04:55:24.860Z,24.80
2022-12-15T04:58:45.682Z,26.57
2022-12-15T05:02:07.210Z,26.65
2022-12-15T05:05:28.407Z,25.17
2022-12-15T05:08:50.103Z,26.47
2022-12-15T05:12:11.386Z,23.10
2022-12-15T05:15:32.379Z,24.98
2022-12-15T05:18:53.567Z,24.52
2022-12-15T05:22:14.392Z,24.10
2022-12-15T05:25:35.461Z,26.42
2022-12-15T05:28:56.706Z,25.30
2022-12-15T05:31:59.179Z,25.77
2022-12-15T05:35:01.662Z,26.58
2022-12-15T05:38:05.775Z,26.20
2022-12-15T05:41:08.623Z,25.43
2022-12-15T05:44:11.471Z,26.48
2022-12-15T05:47:13.959Z,26.20
2022-12-15T05:50:16.443Z,26.05
2022-12-15T05:53:18.825Z,27.58
2022-12-15T05:56:21.286Z,25.95
2022-12-15T05:59:23.711Z,29.00
2022-12-15T06:02:28.334Z,27.30
2022-12-15T06:05:34.486Z,30.35
2022-12-15T06:08:39.283Z,29.65
2022-12-15T06:11:42.859Z,30.60
2022-12-15T06:14:45.335Z,32.75
2022-12-15T06:17:49.780Z,33.75
2022-12-15T06:21:03.998Z,31.67
2022-12-15T06:24:07.419Z,33.97
2022-12-15T06:27:09.896Z,37.15
2022-12-15T06:30:13.206Z,38.28
2022-12-15T06:33:15.716Z,35.00
2022-12-15T06:36:19.007Z,30.67
2022-12-15T06:39:21.806Z,31.02
2022-12-15T06:42:24.251Z,40.17
2022-12-15T06:45:26.797Z,41.33
2022-12-15T06:48:29.674Z,40.95
2022-12-15T06:51:32.808Z,32.17
2022-12-15T06:54:35.338Z,31.70
2022-12-15T06:57:38.990Z,34.78
2022-12-15T07:00:45.952Z,35.58
2022-12-15T07:03:49.184Z,34.13
2022-12-15T07:06:51.719Z,34.17
2022-12-15T07:09:54.359Z,30.85
2022-12-15T07:12:57.841Z,30.80
2022-12-15T07:16:01.768Z,28.75
2022-12-15T07:19:04.233Z,30.85
2022-12-15T07:22:06.700Z,37.42
2022-12-15T07:25:09.613Z,34.53
2022-12-15T07:28:12.292Z,33.47
2022-12-15T07:31:15.689Z,35.30
2022-12-15T07:34:18.582Z,44.87
2022-12-15T07:37:21.111Z,57.80
2022-12-15T07:40:23.876Z,63.50
2022-12-15T07:43:27.251Z,59.63
2022-12-15T07:46:30.516Z,58.72
2022-12-15T07:49:33.553Z,54.08
2022-12-15T07:52:36.278Z,50.53
2022-12-15T07:56:05.597Z,49.27
2022-12-15T08:03:42.204Z,43.08
2022-12-15T08:06:44.875Z,44.80
2022-12-15T08:09:48.314Z,45.22
2022-12-15T08:12:51.074Z,40.70
2022-12-15T08:15:54.919Z,43.92
2022-12-15T08:18:57.423Z,45.40
2022-12-15T08:22:00.001Z,40.00
2022-12-15T08:25:02.556Z,38.25
2022-12-15T08:28:05.311Z,35.97
2022-12-15T08:31:20.443Z,34.75
2022-12-15T08:34:23.147Z,34.75
2022-12-15T08:37:26.896Z,31.00
2022-12-15T08:40:29.400Z,28.58
2022-12-15T08:43:32.342Z,30.88
2022-12-15T08:46:35.239Z,31.05
2022-12-15T08:49:37.708Z,33.07
2022-12-15T08:52:55.336Z,33.63
2022-12-15T08:56:06.265Z,33.70
2022-12-15T08:59:09.731Z,35.67
2022-12-15T09:02:13.017Z,35.58
2022-12-15T09:05:15.793Z,39.03
2022-12-15T09:08:18.408Z,36.53
2022-12-15T09:11:21.259Z,35.77
2022-12-15T09:14:29.177Z,35.95
2022-12-15T09:17:32.210Z,33.40
2022-12-15T09:20:34.998Z,34.23
2022-12-15T09:23:39.672Z,32.75
2022-12-15T09:26:42.794Z,36.83
2022-12-15T09:29:45.855Z,35.10
2022-12-15T09:32:48.956Z,30.97
2022-12-15T09:35:52.339Z,30.80
2022-12-15T09:38:55.326Z,28.42
2022-12-15T09:42:00.908Z,28.23
2022-12-15T09:45:18.019Z,30.35
2022-12-15T09:48:24.431Z,30.85
2022-12-15T09:51:36.738Z,29.35
2022-12-15T09:54:43.063Z,27.37
2022-12-15T09:58:10.956Z,27.58
2022-12-15T10:01:47.017Z,28.60
2022-12-15T10:04:50.838Z,28.25
2022-12-15T10:07:53.514Z,30.43
2022-12-15T10:11:02.608Z,31.92
2022-12-15T10:14:05.191Z,31.85
2022-12-15T10:17:14.316Z,29.13
2022-12-15T10:20:21.279Z,28.05
2022-12-15T10:23:28.403Z,27.50
2022-12-15T10:26:34.556Z,26.92
2022-12-15T10:33:19.515Z,28.50
2022-12-15T10:36:25.983Z,31.50
2022-12-15T10:39:43.651Z,30.50
2022-12-15T10:42:51.044Z,28.92
2022-12-15T10:46:15.975Z,28.77
2022-12-15T10:49:18.558Z,27.38
2022-12-15T10:52:25.374Z,28.63
2022-12-15T10:55:41.240Z,27.75
2022-12-15T10:58:55.864Z,29.35
2022-12-15T11:02:23.892Z,30.80
2022-12-15T11:05:27.819Z,28.87
2022-12-15T11:08:30.572Z,29.60
2022-12-15T11:11:54.423Z,30.92
2022-12-15T11:14:58.479Z,28.37
2022-12-15T11:18:04.251Z,27.00
2022-12-15T11:21:19.076Z,25.33
2022-12-15T11:24:35.232Z,25.52
2022-12-15T11:27:43.558Z,24.83
2022-12-15T11:30:53.810Z,26.13
2022-12-15T11:33:57.178Z,25.02
2022-12-15T11:37:24.202Z,25.67
2022-12-15T11:40:41.051Z,27.13
2022-12-15T11:43:53.031Z,24.47
2022-12-15T11:47:04.552Z,24.85
2022-12-15T11:50:10.463Z,26.23
2022-12-15T11:53:45.953Z,27.63
2022-12-15T11:57:43.899Z,27.85
2022-12-15T12:01:26.508Z,28.58
2022-12-15T12:04:43.351Z,27.02
2022-12-15T12:07:49.111Z,27.37
2022-12-15T12:11:16.990Z,29.85
2022-12-15T12:14:29.044Z,28.77
2022-12-15T12:17:41.452Z,29.83
2022-12-15T12:24:50.579Z,29.35
2022-12-15T12:28:13.347Z,30.00
2022-12-15T12:31:35.410Z,27.80
2022-12-15T12:35:30.346Z,29.07
2022-12-15T12:38:31.440Z,28.52
2022-12-15T12:41:47.806Z,28.48
2022-12-15T12:44:50.374Z,29.40
2022-12-15T12:47:57.823Z,29.70
2022-12-15T12:51:24.364Z,27.80
2022-12-15T12:54:36.687Z,30.67
2022-12-15T12:57:43.633Z,33.40
2022-12-15T13:01:06.130Z,32.65
2022-12-15T13:04:12.138Z,30.45
2022-12-15T13:07:34.930Z,30.03
2022-12-15T13:10:40.867Z,32.30
2022-12-15T13:17:29.627Z,30.70
2022-12-15T13:20:39.499Z,29.10
2022-12-15T13:23:43.243Z,27.67
2022-12-15T13:26:48.765Z,28.52
2022-12-15T13:30:05.858Z,26.08
2022-12-15T13:33:18.343Z,27.00
2022-12-15T13:36:39.762Z,28.85
2022-12-15T13:39:55.279Z,30.48
2022-12-15T13:43:10.178Z,30.00
2022-12-15T13:46:18.311Z,28.73
2022-12-15T13:49:29.780Z,31.17
2022-12-15T13:53:18.527Z,30.88
2022-12-15T13:56:26.448Z,30.60
2022-12-15T13:59:42.413Z,31.65
2022-12-15T14:02:45.487Z,29.20
2022-12-15T14:05:51.286Z,28.92
2022-12-15T14:08:54.002Z,29.83
2022-12-15T14:11:57.903Z,32.28
2022-12-15T14:15:00.461Z,32.38
2022-12-15T14:18:02.912Z,34.33
2022-12-15T14:21:07.788Z,31.60
2022-12-15T14:24:40.647Z,30.48
2022-12-15T14:27:43.478Z,32.53
2022-12-15T14:30:46.074Z,32.93
2022-12-15T14:34:06.374Z,34.42
2022-12-15T14:37:17.434Z,33.88
2022-12-15T14:40:24.996Z,34.22
2022-12-15T14:43:38.997Z,34.95
2022-12-15T14:46:46.619Z,30.27
2022-12-15T14:49:51.215Z,31.80
2022-12-15T14:53:04.394Z,30.70
2022-12-15T14:56:33.063Z,29.50
2022-12-15T14:59:35.767Z,31.83
2022-12-15T15:02:38.604Z,35.13
2022-12-15T15:03:04.401Z,28.03
2022-12-15T15:03:11.751Z,28.83
2022-12-15T15:03:12.980Z,29.55
2022-12-15T15:06:11.125Z,34.17
2022-12-15T15:09:24.928Z,37.47
2022-12-15T15:12:46.147Z,39.22
2022-12-15T15:16:01.006Z,36.77
2022-12-15T15:19:05.592Z,39.38
2022-12-15T15:22:21.816Z,47.88
2022-12-15T15:25:39.252Z,46.55
2022-12-15T15:28:45.244Z,39.70
2022-12-15T15:31:47.740Z,37.85
2022-12-15T15:34:51.226Z,40.83
2022-12-15T15:38:05.295Z,39.00
2022-12-15T15:41:19.612Z,39.15
2022-12-15T15:44:22.198Z,41.20
2022-12-15T15:47:26.287Z,42.30
2022-12-15T15:50:29.764Z,48.40
2022-12-15T15:53:34.078Z,40.08
2022-12-15T15:56:36.602Z,40.83
2022-12-15T15:59:42.255Z,30.35
2022-12-15T16:02:45.021Z,34.03
2022-12-15T16:05:47.700Z,40.20
2022-12-15T16:08:52.452Z,37.40
2022-12-15T16:11:55.152Z,37.08
2022-12-15T16:14:57.640Z,40.78
2022-12-15T16:18:00.403Z,44.23
2022-12-15T16:21:02.869Z,38.92
2022-12-15T16:24:11.012Z,43.63
2022-12-15T16:27:15.335Z,30.23
2022-12-15T16:30:23.782Z,40.78
2022-12-15T16:33:26.248Z,23.67
2022-12-15T16:36:29.220Z,32.00
2022-12-15T16:39:34.178Z,35.37
2022-12-15T16:42:36.616Z,31.33
2022-12-15T16:45:44.800Z,32.60
2022-12-15T16:48:47.620Z,36.17
2022-12-15T16:52:04.918Z,37.53
2022-12-15T16:55:10.268Z,44.65
2022-12-15T16:58:15.246Z,52.63
2022-12-15T17:01:17.574Z,43.65
2022-12-15T17:04:21.518Z,33.27
2022-12-15T17:07:25.220Z,23.75
2022-12-15T17:10:28.635Z,17.63
2022-12-15T17:13:43.736Z,20.57
2022-12-15T17:16:47.954Z,20.10
2022-12-15T17:20:27.563Z,23.25
2022-12-15T17:23:15.823Z,15.32
2022-12-15T17:26:29.008Z,20.58
2022-12-15T17:29:33.616Z,15.13
2022-12-15T17:32:35.785Z,17.50
2022-12-15T17:35:37.887Z,18.53
2022-12-15T17:38:40.087Z,23.02
2022-12-15T17:41:59.319Z,19.58
2022-12-15T17:45:12.772Z,19.90
2022-12-15T17:48:15.233Z,20.65
2022-12-15T17:51:18.602Z,21.88
2022-12-15T17:54:21.194Z,20.70
2022-12-15T17:57:23.263Z,21.02
2022-12-15T18:00:26.721Z,26.60
2022-12-15T18:03:29.446Z,29.13
2022-12-15T18:06:31.990Z,30.20
2022-12-15T18:09:34.141Z,27.40
2022-12-15T18:12:36.440Z,36.75
2022-12-15T18:15:38.591Z,39.17
2022-12-15T18:18:40.966Z,35.47
2022-12-15T18:21:43.307Z,24.67
2022-12-15T18:24:46.198Z,20.20
2022-12-15T18:27:49.047Z,23.03
2022-12-15T18:30:53.517Z,25.20
2022-12-15T18:34:04.023Z,29.80
2022-12-15T18:37:13.817Z,31.33
2022-12-15T18:40:17.269Z,31.92
2022-12-15T18:43:23.744Z,28.52
2022-12-15T18:46:25.803Z,22.02
2022-12-15T18:49:28.020Z,22.03
2022-12-15T18:52:35.021Z,23.05
2022-12-15T18:55:37.575Z,22.38
2022-12-15T18:58:40.044Z,23.40
2022-12-15T19:01:43.426Z,23.77
2022-12-15T19:04:46.631Z,23.90
2022-12-15T19:07:48.954Z,24.45
2022-12-15T19:10:52.686Z,21.33
2022-12-15T19:13:58.618Z,19.95
2022-12-15T19:17:19.277Z,18.13
2022-12-15T19:20:40.749Z,18.03
2022-12-15T19:23:43.165Z,19.40
2022-12-15T19:26:45.548Z,22.17
2022-12-15T19:29:48.269Z,20.13
2022-12-15T19:32:50.714Z,25.33
2022-12-15T19:35:55.077Z,26.55
2022-12-15T19:38:57.665Z,29.20
2022-12-15T19:42:00.120Z,23.30
2022-12-15T19:45:13.842Z,24.52
2022-12-15T19:48:21.602Z,22.17
2022-12-15T19:51:26.210Z,22.98
2022-12-15T19:54:28.675Z,24.08
2022-12-15T19:57:30.910Z,19.42
2022-12-15T20:00:34.007Z,19.50
2022-12-15T20:03:36.713Z,21.30
2022-12-15T20:06:39.333Z,18.42
2022-12-15T20:09:41.898Z,14.60
2022-12-15T20:12:44.131Z,17.45
2022-12-15T20:15:46.327Z,22.77
2022-12-15T20:18:49.305Z,19.85
2022-12-15T20:21:52.483Z,16.00
2022-12-15T20:24:54.850Z,23.53
2022-12-15T20:28:00.292Z,17.23
2022-12-15T20:31:02.436Z,15.05
2022-12-15T20:34:04.843Z,16.97
2022-12-15T20:37:18.191Z,21.88
2022-12-15T20:40:28.391Z,21.08
2022-12-15T20:43:32.285Z,22.92
2022-12-15T20:46:35.285Z,11.55
2022-12-15T20:49:37.548Z,22.35
2022-12-15T20:52:39.702Z,24.55
2022-12-15T20:55:42.316Z,24.93
2022-12-15T20:58:46.054Z,27.10
2022-12-15T21:01:48.596Z,27.60
2022-12-15T21:04:51.075Z,25.57
2022-12-15T21:07:53.142Z,26.33
2022-12-15T21:11:21.523Z,28.85
2022-12-15T21:14:23.931Z,35.90
2022-12-15T21:17:26.208Z,30.53
2022-12-15T21:20:28.439Z,27.25
2022-12-15T21:23:31.175Z,30.42
2022-12-15T21:26:33.423Z,29.33
2022-12-15T21:29:35.877Z,31.90
2022-12-15T21:32:37.959Z,28.38
2022-12-15T21:35:41.094Z,31.33
2022-12-15T21:38:44.431Z,37.15
2022-12-15T21:41:46.894Z,37.10
2022-12-15T21:44:48.943Z,33.70
2022-12-15T21:48:10.283Z,31.60
2022-12-15T21:51:13.968Z,30.70
2022-12-15T21:54:28.837Z,32.30
2022-12-15T21:57:32.933Z,35.83
2022-12-15T22:00:35.081Z,35.67
2022-12-15T22:03:37.997Z,30.55
2022-12-15T22:06:40.090Z,33.13
2022-12-15T22:09:42.207Z,46.53
2022-12-15T22:12:47.406Z,46.33
2022-12-15T22:15:50.965Z,48.50
2022-12-15T22:18:55.539Z,46.50
2022-12-15T22:21:57.697Z,44.58
2022-12-15T22:24:59.740Z,39.90
2022-12-15T22:28:01.795Z,37.58
2022-12-15T22:31:04.413Z,40.33
2022-12-15T22:34:11.998Z,37.03
2022-12-15T22:37:14.153Z,39.33
2022-12-15T22:40:17.534Z,37.22
2022-12-15T22:43:22.590Z,35.13
2022-12-15T22:46:24.929Z,32.58
2022-12-15T22:49:31.681Z,30.83
2022-12-15T22:52:34.058Z,29.02
2022-12-15T22:55:36.247Z,26.55
2022-12-15T22:58:40.946Z,24.17
2022-12-15T23:01:43.149Z,22.17
2022-12-15T23:04:45.388Z,23.02
2022-12-15T23:07:47.474Z,19.70
2022-12-15T23:11:08.460Z,21.73
2022-12-15T23:14:15.640Z,18.35
2022-12-15T23:17:17.737Z,17.40
2022-12-15T23:20:19.796Z,17.20
2022-12-15T23:23:21.929Z,21.57
2022-12-15T23:26:24.293Z,22.83
2022-12-15T23:29:26.855Z,22.20
2022-12-15T23:32:28.986Z,19.25
2022-12-15T23:35:31.135Z,22.67
2022-12-15T23:38:33.430Z,23.83
2022-12-15T23:41:35.798Z,23.55
2022-12-15T23:44:38.032Z,23.65
2022-12-15T23:47:40.632Z,23.77
2022-12-15T23:50:42.757Z,22.83
2022-12-15T23:53:45.850Z,23.00
2022-12-15T23:56:48.054Z,23.85
2022-12-15T23:59:50.238Z,24.87
